Time;durP1;ratioP1;P1;durP2;ratioP2;P2;SDS_P1;SDS_P2;PMS_P1;PMS_P2;Temp;Humidity;BMP_temperature;BMP_pressure;BME280_temperature;BME280_humidity;BME280_pressure;Samples;Min_cycle;Max_cycle;Signal;HPM_P1;HPM_P2
2023/03/02 00:00:35;;;;;;;44.85;15.65;;;;;;;1.68;nan;100101.50;4998400;28;20425;-69
2023/03/02 00:03:04;;;;;;;26.13;10.87;;;;;;;1.69;nan;100102.41;4998462;28;20030;-69
2023/03/02 00:05:30;;;;;;;33.53;13.32;;;;;;;1.69;nan;100094.63;5001482;28;20018;-69
2023/03/02 00:07:58;;;;;;;24.65;10.85;;;;;;;1.68;nan;100100.59;4991496;28;20077;-69
2023/03/02 00:10:24;;;;;;;29.02;10.98;;;;;;;1.66;nan;100098.00;4996772;28;20030;-69
2023/03/02 00:12:49;;;;;;;23.85;10.68;;;;;;;1.66;nan;100103.19;4998402;28;20058;-70
2023/03/02 00:15:15;;;;;;;28.27;11.10;;;;;;;1.66;nan;100107.47;4982035;28;20034;-69
2023/03/02 00:17:40;;;;;;;23.33;10.10;;;;;;;1.64;nan;100102.25;4978778;28;20058;-69
2023/03/02 00:20:09;;;;;;;22.10;9.60;;;;;;;1.64;nan;100102.25;4981493;28;20069;-69
2023/03/02 00:22:39;;;;;;;21.10;9.32;;;;;;;1.65;nan;100106.59;4978729;28;20106;-69
2023/03/02 00:25:06;;;;;;;22.30;9.63;;;;;;;1.66;nan;100103.19;4978449;28;20026;-69
2023/03/02 00:27:31;;;;;;;22.05;10.18;;;;;;;1.68;nan;100111.88;4979260;28;20027;-69
2023/03/02 00:29:57;;;;;;;17.60;8.70;;;;;;;1.70;nan;100107.63;4981777;28;20022;-69
2023/03/02 00:32:23;;;;;;;18.37;8.73;;;;;;;1.71;nan;100105.91;4987916;28;20031;-69
2023/03/02 00:34:49;;;;;;;18.83;8.83;;;;;;;1.69;nan;100100.66;4978486;28;20575;-69
2023/03/02 00:37:14;;;;;;;18.27;8.93;;;;;;;1.67;nan;100098.84;4978513;28;20042;-69
2023/03/02 00:39:40;;;;;;;20.20;8.83;;;;;;;1.64;nan;100098.75;4978131;28;20036;-69
2023/03/02 00:42:05;;;;;;;20.27;8.73;;;;;;;1.61;nan;100098.69;4985659;28;20118;-69
2023/03/02 00:44:31;;;;;;;18.77;8.47;;;;;;;1.55;nan;100099.38;4991305;28;20054;-69
2023/03/02 00:46:56;;;;;;;19.70;8.50;;;;;;;1.50;nan;100103.53;4978338;28;20065;-69
2023/03/02 00:49:22;;;;;;;21.93;9.47;;;;;;;1.48;nan;100100.03;4978211;28;20029;-69
2023/03/02 00:51:47;;;;;;;22.55;9.15;;;;;;;1.46;nan;100096.50;4978217;28;20038;-69
2023/03/02 00:54:13;;;;;;;19.53;8.77;;;;;;;1.43;nan;100100.78;4978125;28;20027;-69
2023/03/02 00:56:38;;;;;;;20.40;9.33;;;;;;;1.41;nan;100096.34;4977931;28;20023;-69
2023/03/02 00:59:27;;;;;;;19.42;9.38;;;;;;;1.39;nan;100101.53;4985685;28;20022;-69
2023/03/02 01:01:58;;;;;;;21.30;9.13;;;;;;;1.39;nan;100104.13;4997441;28;20039;-69
2023/03/02 01:04:52;;;;;;;20.10;9.52;;;;;;;1.41;nan;100105.03;4999386;28;20099;-69
2023/03/02 01:07:19;;;;;;;19.75;9.30;;;;;;;1.43;nan;100105.97;5007224;28;20043;-69
2023/03/02 01:09:45;;;;;;;22.42;9.85;;;;;;;1.47;nan;100106.06;4995774;28;20110;-69
2023/03/02 01:12:11;;;;;;;21.33;9.13;;;;;;;1.49;nan;100109.56;4979340;28;20497;-69
2023/03/02 01:14:41;;;;;;;18.05;9.05;;;;;;;1.52;nan;100109.66;4977963;28;20510;-69
2023/03/02 01:17:09;;;;;;;19.38;9.15;;;;;;;1.57;nan;100106.38;4984463;28;20039;-69
2023/03/02 01:19:35;;;;;;;19.23;9.20;;;;;;;1.66;nan;100113.56;4977876;28;20041;-69
2023/03/02 01:22:00;;;;;;;23.33;10.20;;;;;;;1.76;nan;100111.22;4977634;28;20051;-69
2023/03/02 01:24:26;;;;;;;21.77;9.45;;;;;;;1.84;nan;100113.22;4976267;28;20038;-69
2023/03/02 01:26:51;;;;;;;23.00;9.77;;;;;;;1.95;nan;100110.91;4977575;28;20030;-69
2023/03/02 01:29:17;;;;;;;22.53;9.43;;;;;;;2.05;nan;100105.97;4976436;28;20118;-69
2023/03/02 01:31:42;;;;;;;19.88;9.38;;;;;;;2.14;nan;100101.06;4989680;28;20082;-69
2023/03/02 01:34:08;;;;;;;26.67;11.83;;;;;;;2.23;nan;100106.50;4977715;28;20038;-69
2023/03/02 01:36:33;;;;;;;22.27;10.57;;;;;;;2.30;nan;100110.16;4977465;28;20027;-69
2023/03/02 01:38:59;;;;;;;23.98;10.23;;;;;;;2.36;nan;100110.31;4977692;28;20057;-69
2023/03/02 01:41:25;;;;;;;21.80;9.83;;;;;;;2.42;nan;100113.09;4984588;28;20039;-69
2023/03/02 01:43:51;;;;;;;17.40;8.73;;;;;;;2.48;nan;100111.47;4989962;28;20088;-69
2023/03/02 01:46:19;;;;;;;19.47;9.70;;;;;;;2.54;nan;100109.94;4978246;28;20027;-69
2023/03/02 01:48:50;;;;;;;26.75;10.18;;;;;;;2.60;nan;100100.53;4977874;28;20058;-69
2023/03/02 01:51:19;;;;;;;21.77;9.68;;;;;;;2.63;nan;100098.84;4977653;28;20035;-69
2023/03/02 01:53:47;;;;;;;23.23;9.48;;;;;;;2.66;nan;100101.56;4977407;28;20058;-69
2023/03/02 01:56:16;;;;;;;19.38;9.57;;;;;;;2.67;nan;100092.03;4977529;28;20402;-69
2023/03/02 01:58:43;;;;;;;22.67;9.00;;;;;;;2.65;nan;100091.13;4982087;28;20182;-69
2023/03/02 02:01:15;;;;;;;19.17;9.63;;;;;;;2.67;nan;100092.94;4996766;28;20120;-69
2023/03/02 02:03:46;;;;;;;20.95;9.32;;;;;;;2.69;nan;100093.84;4996422;28;20026;-69
2023/03/02 02:06:27;;;;;;;30.50;11.75;;;;;;;2.69;nan;100093.84;5009004;28;20089;-69
2023/03/02 02:08:56;;;;;;;20.33;8.80;;;;;;;2.71;nan;100093.88;4977277;28;20045;-69
2023/03/02 02:11:21;;;;;;;21.60;9.30;;;;;;;2.75;nan;100089.63;4977357;28;20050;-69
2023/03/02 02:13:47;;;;;;;22.58;9.07;;;;;;;2.80;nan;100083.72;4987981;28;20031;-70
2023/03/02 02:16:13;;;;;;;18.63;9.17;;;;;;;2.83;nan;100082.88;4978611;28;20085;-69
2023/03/02 02:18:40;;;;;;;21.45;8.70;;;;;;;2.83;nan;100083.78;4979518;28;20034;-69
2023/03/02 02:21:07;;;;;;;19.70;9.45;;;;;;;2.85;nan;100087.28;4979991;28;20045;-69
2023/03/02 02:23:55;;;;;;;27.80;11.87;;;;;;;2.87;nan;100085.59;4980750;28;20543;-70
2023/03/02 02:26:46;;;;;;;24.30;10.65;;;;;;;2.94;nan;100093.56;4983241;28;20030;-69
2023/03/02 02:29:21;;;;;;;39.92;16.20;;;;;;;2.94;nan;100085.75;4991368;28;20097;-69
2023/03/02 02:32:16;;;;;;;18.58;9.43;;;;;;;2.92;nan;100092.63;4991296;28;20078;-69
2023/03/02 02:34:53;;;;;;;22.63;9.60;;;;;;;2.91;nan;100096.97;4978901;28;20041;-69
2023/03/02 02:37:53;;;;;;;20.93;10.37;;;;;;;2.94;nan;100096.16;4979500;28;20085;-69
2023/03/02 02:40:37;;;;;;;29.27;12.18;;;;;;;2.94;nan;100088.34;4978781;28;20031;-70
2023/03/02 02:43:03;;;;;;;19.42;9.45;;;;;;;2.97;nan;100091.03;4987513;28;20065;-70
2023/03/02 02:45:29;;;;;;;18.20;9.25;;;;;;;2.97;nan;100086.72;4987973;28;20037;-69
2023/03/02 02:47:55;;;;;;;19.60;9.00;;;;;;;2.99;nan;100086.72;4980550;28;20450;-69
2023/03/02 02:50:28;;;;;;;17.67;9.20;;;;;;;2.98;nan;100088.47;4980514;28;20085;-69
2023/03/02 02:53:10;;;;;;;21.27;9.32;;;;;;;2.94;nan;100081.44;4980606;28;20027;-69
2023/03/02 02:55:36;;;;;;;19.90;9.43;;;;;;;2.96;nan;100079.75;4980192;28;20044;-69
2023/03/02 02:58:12;;;;;;;17.37;8.93;;;;;;;2.95;nan;100079.69;4980363;28;20061;-70
2023/03/02 03:00:37;;;;;;;17.55;9.38;;;;;;;2.97;nan;100076.31;4999610;28;20074;-69
2023/03/02 03:03:28;;;;;;;19.43;9.23;;;;;;;2.95;nan;100077.09;4989840;28;20098;-69
2023/03/02 03:06:04;;;;;;;17.90;9.65;;;;;;;2.96;nan;100068.47;5010468;28;20391;-69
2023/03/02 03:08:44;;;;;;;17.95;9.20;;;;;;;2.94;nan;100073.63;5000579;28;20034;-69
2023/03/02 03:11:22;;;;;;;18.75;9.55;;;;;;;2.95;nan;100077.09;4981044;28;20105;-69
2023/03/02 03:14:10;;;;;;;20.73;9.48;;;;;;;2.97;nan;100084.13;4980889;28;20035;-69
2023/03/02 03:16:38;;;;;;;19.27;9.13;;;;;;;3.01;nan;100078.13;4979544;28;20120;-69
2023/03/02 03:19:28;;;;;;;22.33;10.32;;;;;;;3.00;nan;100080.69;4981088;28;20042;-69
2023/03/02 03:21:59;;;;;;;19.77;9.13;;;;;;;3.03;nan;100075.59;4979747;28;20041;-69
2023/03/02 03:24:27;;;;;;;21.95;9.82;;;;;;;3.02;nan;100079.03;4979334;28;20406;-69
2023/03/02 03:26:53;;;;;;;20.08;9.23;;;;;;;3.02;nan;100079.03;4990712;28;20168;-69
2023/03/02 03:29:23;;;;;;;21.87;9.33;;;;;;;2.99;nan;100077.22;4994928;28;20034;-69
2023/03/02 03:31:49;;;;;;;19.23;9.10;;;;;;;2.98;nan;100077.16;4992557;28;20127;-69
2023/03/02 03:34:15;;;;;;;20.15;9.65;;;;;;;2.97;nan;100072.81;4980908;28;20121;-69
2023/03/02 03:36:42;;;;;;;18.80;9.15;;;;;;;2.99;nan;100078.94;4981063;28;20031;-69
2023/03/02 03:39:08;;;;;;;18.40;9.63;;;;;;;2.96;nan;100077.16;4980954;28;20431;-69
2023/03/02 03:41:34;;;;;;;18.23;9.40;;;;;;;2.97;nan;100080.63;4987042;28;20033;-69
2023/03/02 03:43:59;;;;;;;19.55;10.05;;;;;;;2.95;nan;100078.00;4993239;28;20409;-69
2023/03/02 03:46:25;;;;;;;18.80;8.90;;;;;;;2.95;nan;100083.19;4980193;28;20030;-69
2023/03/02 03:48:51;;;;;;;18.93;9.80;;;;;;;2.90;nan;100083.91;4980446;28;20050;-70
2023/03/02 03:51:16;;;;;;;19.53;9.27;;;;;;;2.90;nan;100089.13;4980337;28;20700;-69
2023/03/02 03:53:42;;;;;;;20.23;9.13;;;;;;;2.89;nan;100090.84;4979828;28;20194;-69
2023/03/02 03:56:07;;;;;;;19.85;9.73;;;;;;;2.89;nan;100074.38;4979466;28;20158;-69
2023/03/02 03:58:33;;;;;;;18.73;9.23;;;;;;;2.87;nan;100079.50;4989523;28;20037;-69
2023/03/02 04:00:59;;;;;;;21.20;9.73;;;;;;;2.84;nan;100080.34;4998049;28;20050;-69
2023/03/02 04:03:25;;;;;;;20.95;9.93;;;;;;;2.82;nan;100079.41;4999592;28;20073;-70
2023/03/02 04:05:51;;;;;;;20.27;9.13;;;;;;;2.81;nan;100077.66;5006950;28;20030;-69
2023/03/02 04:08:17;;;;;;;19.57;9.07;;;;;;;2.78;nan;100085.41;5001746;28;20026;-69
2023/03/02 04:10:43;;;;;;;18.02;8.55;;;;;;;2.79;nan;100081.06;4996210;28;20574;-69
2023/03/02 04:13:09;;;;;;;16.33;8.57;;;;;;;2.78;nan;100075.00;4997666;28;20065;-69
2023/03/02 04:15:34;;;;;;;19.57;10.23;;;;;;;2.80;nan;100072.41;4996391;28;20026;-69
2023/03/02 04:18:00;;;;;;;18.33;8.60;;;;;;;2.81;nan;100074.16;4997608;28;20030;-69
2023/03/02 04:20:26;;;;;;;18.08;9.30;;;;;;;2.82;nan;100079.41;4997665;28;20034;-69
2023/03/02 04:22:53;;;;;;;16.98;9.07;;;;;;;2.84;nan;100075.13;4997315;28;20048;-69
2023/03/02 04:25:21;;;;;;;17.25;8.30;;;;;;;2.84;nan;100080.34;4997348;28;20076;-69
2023/03/02 04:27:49;;;;;;;18.60;9.07;;;;;;;2.84;nan;100076.84;5009665;28;20089;-69
2023/03/02 04:30:16;;;;;;;17.63;9.38;;;;;;;2.84;nan;100077.72;4978860;28;20037;-69
2023/03/02 04:32:45;;;;;;;18.55;9.07;;;;;;;2.83;nan;100077.69;4976657;28;20407;-69
2023/03/02 04:35:11;;;;;;;21.20;9.02;;;;;;;2.82;nan;100086.34;4976601;28;20474;-69
2023/03/02 04:37:37;;;;;;;18.83;9.25;;;;;;;2.81;nan;100082.88;4977670;28;20530;-69
2023/03/02 04:40:04;;;;;;;21.27;9.37;;;;;;;2.83;nan;100088.09;4978287;28;20035;-69
2023/03/02 04:42:29;;;;;;;17.48;8.75;;;;;;;2.83;nan;100077.69;4984295;28;20018;-69
2023/03/02 04:44:54;;;;;;;20.60;9.17;;;;;;;2.83;nan;100088.09;4989455;28;20037;-69
2023/03/02 04:47:20;;;;;;;20.58;9.43;;;;;;;2.84;nan;100077.72;4977690;28;20483;-69
2023/03/02 04:49:45;;;;;;;20.87;9.20;;;;;;;2.83;nan;100083.78;4977774;28;20479;-69
2023/03/02 04:52:11;;;;;;;19.07;9.00;;;;;;;2.82;nan;100076.81;4977550;28;20558;-69
2023/03/02 04:54:36;;;;;;;17.40;9.03;;;;;;;2.82;nan;100075.94;4978393;28;20043;-69
2023/03/02 04:57:02;;;;;;;20.43;8.90;;;;;;;2.82;nan;100087.22;4976271;28;20026;-69
2023/03/02 04:59:28;;;;;;;24.17;9.67;;;;;;;2.84;nan;100082.94;4946447;28;1206379;-71
2023/03/02 05:01:58;;;;;;;19.73;9.45;;;;;;;2.88;nan;100086.47;4996494;28;20521;-69
2023/03/02 05:04:25;;;;;;;18.97;9.20;;;;;;;2.92;nan;100095.25;4990836;28;20573;-69
2023/03/02 05:06:50;;;;;;;17.95;9.27;;;;;;;2.96;nan;100094.47;5011240;28;20046;-69
2023/03/02 05:09:16;;;;;;;19.70;9.37;;;;;;;3.00;nan;100093.69;4997586;28;20505;-70
2023/03/02 05:11:42;;;;;;;19.90;9.00;;;;;;;3.02;nan;100094.63;4997405;28;20054;-69
2023/03/02 05:14:10;;;;;;;19.05;9.10;;;;;;;3.05;nan;100094.69;4997856;28;20057;-69
2023/03/02 05:16:38;;;;;;;17.07;8.57;;;;;;;3.07;nan;100100.81;4996363;28;20030;-69
2023/03/02 05:19:05;;;;;;;21.90;10.00;;;;;;;3.11;nan;100094.84;4997678;28;20026;-69
2023/03/02 05:21:31;;;;;;;20.95;9.45;;;;;;;3.15;nan;100101.88;4997551;28;20437;-69
2023/03/02 05:23:56;;;;;;;18.70;8.90;;;;;;;3.18;nan;100098.47;4997298;28;20109;-69
2023/03/02 05:26:22;;;;;;;17.25;8.65;;;;;;;3.22;nan;100104.59;4998637;28;20394;-69
2023/03/02 05:28:47;;;;;;;19.53;8.70;;;;;;;3.23;nan;100103.75;4999025;28;20037;-69
2023/03/02 05:31:25;;;;;;;20.57;9.20;;;;;;;3.27;nan;100111.69;4989776;28;20022;-69
2023/03/02 05:33:51;;;;;;;21.83;8.98;;;;;;;3.32;nan;100118.72;4978084;28;20041;-69
2023/03/02 05:36:16;;;;;;;18.47;8.97;;;;;;;3.34;nan;100114.41;4977983;28;20031;-69
2023/03/02 05:38:42;;;;;;;21.57;8.93;;;;;;;3.36;nan;100115.34;4977882;28;20027;-70
2023/03/02 05:41:07;;;;;;;35.83;14.95;;;;;;;3.39;nan;100115.44;4984540;28;20543;-69
2023/03/02 05:43:32;;;;;;;39.47;15.70;;;;;;;3.40;nan;100105.03;4987736;28;20034;-69
2023/03/02 05:45:59;;;;;;;18.80;9.13;;;;;;;3.43;nan;100112.03;4979544;28;20106;-69
2023/03/02 05:48:29;;;;;;;16.10;8.20;;;;;;;3.43;nan;100112.91;4977834;28;20114;-69
2023/03/02 05:50:54;;;;;;;20.23;8.73;;;;;;;3.45;nan;100116.44;4983567;28;20102;-69
2023/03/02 05:53:20;;;;;;;17.70;7.10;;;;;;;3.42;nan;100116.34;4981722;28;20023;-70
2023/03/02 05:55:45;;;;;;;17.13;8.17;;;;;;;3.44;nan;100117.28;4981563;28;20035;-69
2023/03/02 05:58:13;;;;;;;14.93;7.90;;;;;;;3.47;nan;100112.97;4992105;28;20027;-70
2023/03/02 06:00:39;;;;;;;16.90;8.00;;;;;;;3.45;nan;100116.44;5000959;28;20286;-69
2023/03/02 06:03:05;;;;;;;16.52;7.60;;;;;;;3.50;nan;100118.28;5000216;28;20508;-69
2023/03/02 06:05:31;;;;;;;18.83;8.65;;;;;;;3.52;nan;100119.19;5010261;28;20401;-69
2023/03/02 06:07:56;;;;;;;17.57;8.17;;;;;;;3.52;nan;100116.59;5007879;28;20034;-69
2023/03/02 06:10:22;;;;;;;18.53;8.00;;;;;;;3.53;nan;100114.00;5000829;28;20036;-70
2023/03/02 06:12:47;;;;;;;19.85;8.63;;;;;;;3.54;nan;100120.09;5001229;28;20116;-69
2023/03/02 06:15:12;;;;;;;16.67;7.87;;;;;;;3.54;nan;100114.91;4999643;28;20034;-69
2023/03/02 06:17:38;;;;;;;14.83;7.80;;;;;;;3.51;nan;100120.03;5000926;28;20026;-69
2023/03/02 06:20:09;;;;;;;18.77;7.50;;;;;;;3.51;nan;100114.84;5000721;28;20030;-69
2023/03/02 06:22:37;;;;;;;17.00;7.38;;;;;;;3.51;nan;100125.25;5000868;28;20030;-70
2023/03/02 06:25:03;;;;;;;15.63;7.15;;;;;;;3.44;nan;100127.69;5000497;28;20030;-69
2023/03/02 06:27:29;;;;;;;20.52;7.88;;;;;;;3.45;nan;100132.03;5011272;28;20025;-69
2023/03/02 06:29:54;;;;;;;17.83;7.70;;;;;;;3.45;nan;100132.03;4986285;28;20121;-69
2023/03/02 06:32:19;;;;;;;19.03;8.17;;;;;;;3.44;nan;100132.88;4989093;28;20498;-69
2023/03/02 06:34:45;;;;;;;17.23;7.70;;;;;;;3.43;nan;100132.88;4981106;28;20023;-69
2023/03/02 06:37:10;;;;;;;16.75;7.85;;;;;;;3.42;nan;100137.19;4981261;28;20537;-69
2023/03/02 06:39:35;;;;;;;15.80;7.53;;;;;;;3.45;nan;100139.00;4980692;28;20465;-69
2023/03/02 06:42:01;;;;;;;18.47;7.70;;;;;;;3.45;nan;100139.84;4985496;28;20026;-69
2023/03/02 06:44:26;;;;;;;15.83;7.53;;;;;;;3.47;nan;100141.63;4993998;28;20023;-70
2023/03/02 06:46:52;;;;;;;20.10;7.57;;;;;;;3.45;nan;100142.47;4986298;28;20026;-69
2023/03/02 06:49:17;;;;;;;13.77;7.40;;;;;;;3.47;nan;100144.22;4983650;28;20030;-69
2023/03/02 06:51:42;;;;;;;16.73;7.13;;;;;;;3.49;nan;100148.63;4979619;28;20317;-69
2023/03/02 06:54:08;;;;;;;14.20;7.23;;;;;;;3.52;nan;100145.22;4985130;28;20019;-69
2023/03/02 06:56:34;;;;;;;16.80;7.63;;;;;;;3.55;nan;100150.50;4979339;28;20029;-70
2023/03/02 06:58:59;;;;;;;17.20;7.90;;;;;;;3.59;nan;100155.78;4987652;28;20457;-69
2023/03/02 07:01:25;;;;;;;16.13;7.23;;;;;;;3.60;nan;100156.69;4998531;28;20054;-69
2023/03/02 07:03:50;;;;;;;14.10;7.17;;;;;;;3.62;nan;100164.50;5005929;28;20018;-69
2023/03/02 07:06:15;;;;;;;14.50;7.22;;;;;;;3.64;nan;100166.31;5009672;28;20052;-69
2023/03/02 07:08:41;;;;;;;19.60;8.00;;;;;;;3.67;nan;100168.97;5000978;28;20038;-69
2023/03/02 07:11:10;;;;;;;17.17;7.40;;;;;;;3.71;nan;100176.00;4982154;28;20026;-69
2023/03/02 07:13:37;;;;;;;14.07;7.13;;;;;;;3.71;nan;100175.16;4999919;28;20019;-69
2023/03/02 07:16:10;;;;;;;15.40;7.00;;;;;;;3.72;nan;100182.13;4998596;28;20137;-69
2023/03/02 07:18:36;;;;;;;13.77;6.90;;;;;;;3.74;nan;100180.44;4999643;28;20027;-69
2023/03/02 07:21:02;;;;;;;16.17;7.70;;;;;;;3.76;nan;100177.88;4999815;28;20033;-69
2023/03/02 07:23:28;;;;;;;16.13;7.72;;;;;;;3.80;nan;100183.16;4999471;28;20041;-69
2023/03/02 07:25:54;;;;;;;14.68;7.15;;;;;;;3.84;nan;100186.72;4998171;28;20027;-69
2023/03/02 07:28:22;;;;;;;18.13;7.83;;;;;;;3.90;nan;100191.19;5006606;28;20086;-69
2023/03/02 07:30:52;;;;;;;13.65;7.20;;;;;;;3.92;nan;100192.97;4990241;28;20430;-69
2023/03/02 07:33:18;;;;;;;15.73;6.80;;;;;;;3.94;nan;100193.88;4980320;28;20398;-69
2023/03/02 07:35:44;;;;;;;16.33;7.18;;;;;;;3.97;nan;100193.06;4978782;28;20027;-69
2023/03/02 07:38:09;;;;;;;14.57;6.97;;;;;;;4.02;nan;100196.66;4980019;28;20091;-69
2023/03/02 07:40:36;;;;;;;17.03;7.10;;;;;;;4.04;nan;100196.72;4985053;28;20421;-69
2023/03/02 07:43:02;;;;;;;17.10;7.68;;;;;;;4.08;nan;100202.00;4984797;28;20561;-69
2023/03/02 07:45:27;;;;;;;13.27;6.77;;;;;;;4.11;nan;100203.78;4986205;28;20026;-69
2023/03/02 07:47:52;;;;;;;15.93;6.17;;;;;;;4.15;nan;100213.44;4979663;28;20034;-70
2023/03/02 07:50:18;;;;;;;17.43;6.60;;;;;;;4.20;nan;100206.59;4985657;28;20295;-69
2023/03/02 07:52:43;;;;;;;14.50;7.17;;;;;;;4.25;nan;100215.41;4979617;28;20019;-69
2023/03/02 07:55:09;;;;;;;16.57;7.03;;;;;;;4.29;nan;100219.84;4978292;28;20026;-69
2023/03/02 07:57:35;;;;;;;15.05;7.38;;;;;;;4.31;nan;100220.75;4979488;28;20514;-69
2023/03/02 08:00:01;;;;;;;14.18;6.78;;;;;;;4.35;nan;100210.38;4994628;28;20065;-69
2023/03/02 08:02:27;;;;;;;16.45;7.43;;;;;;;4.39;nan;100220.00;4998972;28;20057;-69
2023/03/02 08:04:52;;;;;;;16.07;7.03;;;;;;;4.41;nan;100211.38;5004739;28;20022;-70
2023/03/02 08:07:18;;;;;;;19.48;7.55;;;;;;;4.45;nan;100220.13;5010566;28;20022;-69
2023/03/02 08:09:43;;;;;;;16.27;7.37;;;;;;;4.48;nan;100212.38;4997250;28;20026;-70
2023/03/02 08:12:09;;;;;;;15.17;7.33;;;;;;;4.52;nan;100219.41;4997266;28;20034;-69
2023/03/02 08:14:34;;;;;;;14.90;7.37;;;;;;;4.54;nan;100212.50;4998174;28;20024;-69
2023/03/02 08:17:01;;;;;;;15.20;7.10;;;;;;;4.62;nan;100215.28;4998654;28;20022;-69
2023/03/02 08:19:26;;;;;;;13.47;6.70;;;;;;;4.67;nan;100213.63;4997216;28;20030;-69
2023/03/02 08:21:52;;;;;;;17.08;7.53;;;;;;;4.71;nan;100214.56;4997263;28;20028;-69
2023/03/02 08:24:17;;;;;;;16.73;7.50;;;;;;;4.78;nan;100212.94;4996893;28;20117;-69
2023/03/02 08:26:43;;;;;;;14.27;7.53;;;;;;;4.84;nan;100213.06;5002733;28;20049;-69
2023/03/02 08:29:08;;;;;;;16.48;7.60;;;;;;;4.89;nan;100222.72;4994682;28;20027;-69
2023/03/02 08:31:36;;;;;;;14.27;7.43;;;;;;;4.94;nan;100220.19;4990205;28;20022;-69
2023/03/02 08:34:02;;;;;;;16.67;7.45;;;;;;;5.04;nan;100223.84;4979694;28;20018;-69
2023/03/02 08:36:28;;;;;;;15.67;7.67;;;;;;;5.12;nan;100222.25;4978797;28;20037;-69
2023/03/02 08:38:53;;;;;;;15.33;8.10;;;;;;;5.20;nan;100214.56;4980458;28;20455;-69
2023/03/02 08:41:22;;;;;;;16.55;8.00;;;;;;;5.26;nan;100219.00;4986048;28;20027;-69
2023/03/02 08:43:48;;;;;;;17.08;7.55;;;;;;;5.31;nan;100222.56;4990363;28;20034;-69
2023/03/02 08:46:15;;;;;;;16.75;7.90;;;;;;;5.35;nan;100223.50;4984687;28;20105;-69
2023/03/02 08:48:41;;;;;;;15.70;7.97;;;;;;;5.38;nan;100216.59;4986387;28;20113;-69
2023/03/02 08:51:10;;;;;;;16.77;7.15;;;;;;;5.41;nan;100218.38;4977368;28;20050;-69
2023/03/02 08:53:40;;;;;;;15.27;7.25;;;;;;;5.47;nan;100223.69;4978883;28;20035;-70
2023/03/02 08:56:14;;;;;;;18.33;8.07;;;;;;;5.50;nan;100220.28;4978763;28;20073;-69
2023/03/02 08:58:39;;;;;;;15.10;7.68;;;;;;;5.56;nan;100225.59;4983421;28;20022;-69
2023/03/02 09:01:05;;;;;;;14.17;7.77;;;;;;;5.53;nan;100218.56;4998350;28;20042;-69
2023/03/02 09:03:30;;;;;;;14.73;7.63;;;;;;;5.52;nan;100221.16;5001820;28;20033;-70
2023/03/02 09:05:55;;;;;;;13.70;7.00;;;;;;;5.53;nan;100215.94;5007978;28;20033;-69
2023/03/02 09:08:21;;;;;;;14.87;7.43;;;;;;;5.59;nan;100217.78;5002001;28;20034;-69
2023/03/02 09:10:46;;;;;;;15.70;7.90;;;;;;;5.65;nan;100223.09;4998453;28;20478;-69
2023/03/02 09:13:12;;;;;;;15.70;7.00;;;;;;;5.69;nan;100218.81;4998584;28;20101;-69
2023/03/02 09:15:37;;;;;;;15.10;7.63;;;;;;;5.74;nan;100223.25;4997997;28;20018;-69
2023/03/02 09:18:02;;;;;;;18.60;7.37;;;;;;;5.77;nan;100226.78;4997638;28;20030;-70
2023/03/02 09:20:28;;;;;;;15.77;7.57;;;;;;;5.79;nan;100219.84;4997660;28;20029;-69
2023/03/02 09:22:53;;;;;;;16.63;8.03;;;;;;;5.85;nan;100217.31;4996112;28;20379;-69
2023/03/02 09:25:19;;;;;;;14.77;7.67;;;;;;;5.94;nan;100220.06;4990820;28;20027;-70
2023/03/02 09:27:46;;;;;;;16.40;8.17;;;;;;;6.01;nan;100221.94;5003077;28;20302;-69
2023/03/02 09:30:12;;;;;;;15.27;7.95;;;;;;;6.02;nan;100215.84;4978624;28;20015;-69
2023/03/02 09:32:38;;;;;;;16.55;8.50;;;;;;;6.06;nan;100223.72;4978094;28;20054;-70
2023/03/02 09:35:04;;;;;;;16.40;7.40;;;;;;;6.07;nan;100231.59;4980323;28;20018;-69
2023/03/02 09:37:29;;;;;;;18.02;8.45;;;;;;;6.14;nan;100227.31;4983948;28;20035;-69
2023/03/02 09:39:55;;;;;;;16.43;8.37;;;;;;;6.22;nan;100224.81;4977823;28;20027;-69
2023/03/02 09:43:01;;;;;;;16.40;8.73;;;;;;;6.28;nan;100220.53;4987662;28;20030;-69
2023/03/02 09:45:29;;;;;;;16.35;8.45;;;;;;;6.40;nan;100224.19;4985539;28;20027;-70
2023/03/02 09:48:23;;;;;;;16.65;8.50;;;;;;;6.42;nan;100222.47;4977650;28;20058;-69
2023/03/02 09:51:04;;;;;;;17.63;8.52;;;;;;;6.57;nan;100222.63;4977887;28;20518;-69
2023/03/02 09:53:43;;;;;;;26.23;10.47;;;;;;;6.68;nan;100227.13;4977848;28;20023;-70
2023/03/02 09:56:14;;;;;;;16.98;8.95;;;;;;;6.74;nan;100224.56;4977778;28;20051;-70
2023/03/02 09:58:46;;;;;;;18.67;8.70;;;;;;;6.80;nan;100229.00;4980843;28;20022;-69
2023/03/02 10:01:20;;;;;;;19.70;9.68;;;;;;;6.93;nan;100222.16;4997033;28;20046;-69
2023/03/02 10:04:06;;;;;;;18.50;8.90;;;;;;;7.01;nan;100212.63;4997609;28;20025;-69
2023/03/02 10:06:32;;;;;;;19.37;9.33;;;;;;;7.16;nan;100217.13;4987162;28;20125;-69
2023/03/02 10:08:57;;;;;;;20.93;9.90;;;;;;;7.36;nan;100219.94;4996997;28;20055;-70
2023/03/02 10:11:53;;;;;;;21.33;9.80;;;;;;;7.49;nan;100214.78;4997146;28;20257;-69
2023/03/02 10:14:25;;;;;;;25.02;11.57;;;;;;;7.67;nan;100222.78;4995861;28;20025;-69
2023/03/02 10:16:57;;;;;;;21.03;10.27;;;;;;;7.72;nan;100218.44;4997105;28;20754;-69
2023/03/02 10:19:36;;;;;;;23.75;10.43;;;;;;;7.74;nan;100221.94;4997017;28;20022;-69
2023/03/02 10:22:18;;;;;;;20.05;10.50;;;;;;;7.83;nan;100228.09;4996962;28;20105;-69
2023/03/02 10:24:56;;;;;;;19.35;9.73;;;;;;;7.85;nan;100226.41;4996611;28;20026;-69
2023/03/02 10:27:33;;;;;;;23.17;10.77;;;;;;;7.82;nan;100232.50;4989469;28;20038;-69
2023/03/02 10:30:05;;;;;;;21.13;10.70;;;;;;;7.87;nan;100232.53;4977502;28;20109;-69
2023/03/02 10:32:36;;;;;;;21.25;10.82;;;;;;;7.89;nan;100230.78;4979013;28;20018;-69
2023/03/02 10:35:12;;;;;;;22.83;10.90;;;;;;;7.95;nan;100232.56;4977485;28;20023;-69
2023/03/02 10:37:37;;;;;;;22.67;10.95;;;;;;;8.01;nan;100235.22;4979190;28;20495;-69
2023/03/02 10:40:03;;;;;;;20.63;11.27;;;;;;;8.00;nan;100221.22;4991302;28;20433;-69
2023/03/02 10:42:34;;;;;;;21.70;10.80;;;;;;;7.94;nan;100222.94;4989181;28;20023;-69
2023/03/02 10:45:29;;;;;;;23.52;11.18;;;;;;;7.97;nan;100226.47;4992210;28;20565;-69
2023/03/02 10:48:13;;;;;;;22.70;10.55;;;;;;;7.98;nan;100229.97;4979469;28;20090;-69
2023/03/02 10:50:38;;;;;;;19.23;10.80;;;;;;;8.01;nan;100219.50;4980868;28;20023;-69
2023/03/02 10:53:15;;;;;;;21.57;10.83;;;;;;;7.99;nan;100224.72;4980744;28;20054;-69
2023/03/02 10:55:50;;;;;;;20.38;10.77;;;;;;;7.97;nan;100221.22;4980623;28;20022;-69
2023/03/02 10:58:32;;;;;;;23.40;12.15;;;;;;;7.97;nan;100215.97;4980607;28;20515;-69
2023/03/02 11:01:04;;;;;;;20.67;10.80;;;;;;;7.88;nan;100227.28;4999956;28;20056;-69
2023/03/02 11:03:31;;;;;;;20.10;10.88;;;;;;;7.91;nan;100226.44;5001743;28;20026;-69
2023/03/02 11:06:08;;;;;;;22.53;11.43;;;;;;;7.83;nan;100230.72;5009423;28;20042;-69
2023/03/02 11:08:34;;;;;;;22.70;11.50;;;;;;;7.84;nan;100229.88;5001791;28;20133;-69
2023/03/02 11:11:02;;;;;;;22.92;11.25;;;;;;;7.87;nan;100227.28;4999664;28;20065;-69
2023/03/02 11:13:33;;;;;;;27.33;12.77;;;;;;;7.90;nan;100222.06;4999799;28;20027;-69
2023/03/02 11:16:01;;;;;;;24.43;11.67;;;;;;;7.93;nan;100221.19;4999918;28;20109;-69
2023/03/02 11:18:43;;;;;;;23.70;11.80;;;;;;;7.92;nan;100222.94;4999722;28;20475;-69
2023/03/02 11:21:28;;;;;;;24.08;12.13;;;;;;;7.98;nan;100217.72;4999860;28;20038;-69
2023/03/02 11:23:56;;;;;;;24.13;11.30;;;;;;;8.17;nan;100216.06;4999554;28;20026;-69
2023/03/02 11:26:27;;;;;;;26.23;12.70;;;;;;;8.29;nan;100215.25;5000824;28;20065;-69
2023/03/02 11:29:03;;;;;;;23.70;12.17;;;;;;;8.46;nan;100217.06;4996765;28;20058;-69
2023/03/02 11:31:38;;;;;;;23.40;12.23;;;;;;;8.61;nan;100217.19;4991252;28;20117;-69
2023/03/02 11:34:10;;;;;;;25.88;12.60;;;;;;;8.80;nan;100205.84;4978670;28;20037;-69
2023/03/02 11:36:44;;;;;;;25.20;12.95;;;;;;;8.79;nan;100202.31;4991078;28;20038;-69
2023/03/02 11:39:16;;;;;;;27.77;13.48;;;;;;;8.99;nan;100214.63;4978393;28;20085;-69
2023/03/02 11:41:42;;;;;;;26.90;12.87;;;;;;;9.00;nan;100213.75;4986028;28;20090;-69
2023/03/02 11:44:17;;;;;;;26.60;13.45;;;;;;;9.04;nan;100215.50;4991396;28;20524;-69
2023/03/02 11:47:00;;;;;;;27.63;12.50;;;;;;;9.07;nan;100217.25;4979949;28;20039;-69